createdAt,value
2019-06-07T00:00:52.204Z,3.13
2019-06-07T00:03:29.684Z,3.00
2019-06-07T00:05:56.263Z,4.73
2019-06-07T00:08:29.214Z,2.60
2019-06-07T00:11:00.322Z,3.67
2019-06-07T00:13:31.287Z,4.60
2019-06-07T00:16:02.740Z,4.07
2019-06-07T00:18:34.298Z,3.23
2019-06-07T00:21:05.353Z,4.67
2019-06-07T00:23:37.823Z,2.47
2019-06-07T00:26:10.768Z,4.23
2019-06-07T00:28:42.368Z,3.03
2019-06-07T00:31:14.936Z,3.53
2019-06-07T00:33:46.406Z,6.83
2019-06-07T00:36:20.699Z,5.27
2019-06-07T00:38:51.596Z,6.20
2019-06-07T00:41:23.221Z,2.37
2019-06-07T00:43:54.456Z,4.47
2019-06-07T00:46:25.562Z,2.20
2019-06-07T00:48:56.580Z,4.93
2019-06-07T00:51:27.540Z,7.33
2019-06-07T00:53:58.577Z,2.37
2019-06-07T00:56:29.576Z,4.87
2019-06-07T00:59:11.175Z,3.40
2019-06-07T01:01:33.562Z,3.47
2019-06-07T01:04:04.585Z,4.43
2019-06-07T01:06:35.628Z,3.10
2019-06-07T01:09:07.604Z,3.73
2019-06-07T01:11:38.792Z,4.63
2019-06-07T01:14:09.770Z,2.43
2019-06-07T01:16:56.778Z,3.03
2019-06-07T01:19:13.875Z,3.03
2019-06-07T01:21:44.744Z,3.30
2019-06-07T01:24:15.712Z,3.83
2019-06-07T01:26:46.721Z,2.73
2019-06-07T01:29:19.549Z,5.57
2019-06-07T01:31:50.788Z,5.80
2019-06-07T01:34:25.189Z,3.40
2019-06-07T01:36:54.760Z,3.13
2019-06-07T01:39:30.535Z,3.60
2019-06-07T01:41:58.927Z,3.47
2019-06-07T01:44:31.085Z,6.13
2019-06-07T01:47:02.857Z,5.53
2019-06-07T01:49:34.266Z,4.67
2019-06-07T01:52:05.614Z,3.60
2019-06-07T01:54:58.519Z,4.43
2019-06-07T01:57:30.113Z,5.23
2019-06-07T01:59:43.925Z,4.20
2019-06-07T02:02:17.755Z,3.00
2019-06-07T02:04:48.946Z,4.93
2019-06-07T02:07:25.823Z,3.60
2019-06-07T02:09:54.196Z,4.47
2019-06-07T02:12:37.603Z,3.27
2019-06-07T02:15:01.109Z,2.67
2019-06-07T02:17:33.980Z,2.90
2019-06-07T02:20:05.468Z,4.93
2019-06-07T02:22:40.536Z,4.50
2019-06-07T02:25:39.308Z,3.50
2019-06-07T02:27:46.518Z,2.20
2019-06-07T02:30:43.030Z,4.00
2019-06-07T02:32:55.564Z,2.50
2019-06-07T02:35:34.794Z,2.27
2019-06-07T02:38:00.327Z,4.83
2019-06-07T02:40:36.979Z,5.00
2019-06-07T02:43:05.225Z,3.73
2019-06-07T02:45:43.089Z,3.53
2019-06-07T02:48:10.197Z,4.93
2019-06-07T02:50:41.949Z,7.07
2019-06-07T02:53:13.268Z,3.57
2019-06-07T02:56:34.140Z,2.73
2019-06-07T02:58:17.253Z,5.43
2019-06-07T03:01:09.045Z,5.07
2019-06-07T03:03:22.579Z,6.33
2019-06-07T03:05:54.273Z,6.57
2019-06-07T03:08:28.267Z,3.93
2019-06-07T03:11:00.800Z,5.10
2019-06-07T03:13:34.987Z,4.70
2019-06-07T03:16:07.712Z,8.33
2019-06-07T03:18:58.320Z,3.93
2019-06-07T03:21:29.934Z,2.00
2019-06-07T03:24:04.389Z,3.30
2019-06-07T03:27:23.492Z,2.53
2019-06-07T03:29:08.328Z,5.30
2019-06-07T03:31:45.960Z,9.00
2019-06-07T03:34:13.251Z,3.00
2019-06-07T03:36:44.664Z,5.30
2019-06-07T03:39:16.280Z,4.40
2019-06-07T03:42:05.288Z,6.07
2019-06-07T03:44:23.544Z,2.70
2019-06-07T03:46:55.616Z,4.77
2019-06-07T03:49:28.603Z,3.57
2019-06-07T03:52:01.990Z,3.60
2019-06-07T03:54:38.441Z,5.30
2019-06-07T03:57:10.322Z,3.53
2019-06-07T03:59:42.608Z,3.87
2019-06-07T04:02:15.059Z,4.20
2019-06-07T04:04:47.374Z,3.40
2019-06-07T04:07:19.631Z,2.23
2019-06-07T04:09:50.431Z,2.13
2019-06-07T04:12:22.657Z,5.77
2019-06-07T04:14:53.117Z,2.63
2019-06-07T04:17:23.699Z,1.80
2019-06-07T04:19:54.146Z,3.87
2019-06-07T04:22:24.692Z,1.90
2019-06-07T04:24:55.184Z,1.47
2019-06-07T04:27:26.630Z,1.57
2019-06-07T04:30:07.144Z,5.23
2019-06-07T04:32:33.728Z,2.03
2019-06-07T04:35:07.252Z,3.00
2019-06-07T04:37:41.137Z,1.73
2019-06-07T04:40:10.013Z,2.07
2019-06-07T04:42:45.222Z,1.40
2019-06-07T04:45:32.998Z,2.87
2019-06-07T04:47:53.445Z,2.00
2019-06-07T04:50:34.315Z,2.20
2019-06-07T04:53:05.061Z,1.77
2019-06-07T04:55:38.644Z,2.10
2019-06-07T04:58:06.801Z,2.07
2019-06-07T05:00:58.960Z,1.17
2019-06-07T05:03:10.075Z,1.83
2019-06-07T05:05:43.221Z,1.93
2019-06-07T05:08:27.395Z,1.40
2019-06-07T05:10:45.094Z,1.27
2019-06-07T05:13:15.911Z,2.10
2019-06-07T05:15:46.181Z,2.87
2019-06-07T05:18:16.196Z,2.13
2019-06-07T05:20:46.152Z,1.60
2019-06-07T05:23:59.374Z,1.33
2019-06-07T05:25:48.265Z,2.13
2019-06-07T05:28:18.256Z,2.63
2019-06-07T05:31:03.962Z,2.23
2019-06-07T05:33:20.168Z,3.27
2019-06-07T05:35:50.333Z,2.33
2019-06-07T05:38:20.726Z,3.70
2019-06-07T05:40:50.964Z,5.70
2019-06-07T05:43:26.201Z,3.67
2019-06-07T05:45:56.265Z,2.23
2019-06-07T05:48:26.801Z,1.40
2019-06-07T05:50:57.878Z,1.73
2019-06-07T05:53:31.683Z,1.97
2019-06-07T05:56:02.443Z,1.43
2019-06-07T05:58:35.046Z,1.73
2019-06-07T06:01:41.751Z,2.97
2019-06-07T06:04:02.461Z,2.50
2019-06-07T06:06:33.793Z,2.97
2019-06-07T06:09:13.932Z,2.03
2019-06-07T06:11:55.613Z,1.87
2019-06-07T06:14:18.311Z,1.50
2019-06-07T06:16:50.030Z,2.40
2019-06-07T06:19:20.446Z,3.87
2019-06-07T06:21:53.268Z,4.93
2019-06-07T06:24:23.336Z,1.80
2019-06-07T06:27:00.288Z,2.60
2019-06-07T06:29:25.317Z,2.07
2019-06-07T06:32:40.401Z,3.27
2019-06-07T06:34:30.837Z,7.57
2019-06-07T06:37:01.515Z,2.40
2019-06-07T06:39:32.291Z,1.83
2019-06-07T06:42:25.489Z,3.40
2019-06-07T06:44:58.566Z,1.57
2019-06-07T06:47:29.918Z,3.00
2019-06-07T06:50:03.273Z,1.60
2019-06-07T06:52:33.440Z,3.30
2019-06-07T06:55:06.195Z,2.37
2019-06-07T06:57:41.796Z,3.13
2019-06-07T07:00:14.144Z,2.23
2019-06-07T07:03:35.070Z,1.00
2019-06-07T07:05:19.101Z,3.27
2019-06-07T07:07:53.006Z,4.70
2019-06-07T07:10:37.529Z,3.67
2019-06-07T07:13:08.161Z,1.77
2019-06-07T07:15:38.736Z,2.23
2019-06-07T07:18:09.616Z,3.70
2019-06-07T07:20:39.689Z,1.57
2019-06-07T07:23:10.381Z,3.07
2019-06-07T07:25:43.525Z,4.77
2019-06-07T07:28:12.870Z,2.07
2019-06-07T07:30:49.993Z,1.60
2019-06-07T07:34:12.779Z,1.43
2019-06-07T07:36:18.887Z,2.37
2019-06-07T07:38:32.370Z,2.93
2019-06-07T07:41:13.776Z,3.10
2019-06-07T07:43:36.558Z,2.80
2019-06-07T07:46:28.351Z,1.33
2019-06-07T07:48:38.913Z,2.23
2019-06-07T07:51:09.990Z,1.63
2019-06-07T07:53:52.085Z,1.90
2019-06-07T07:56:12.006Z,2.17
2019-06-07T07:58:48.718Z,1.93
2019-06-07T08:01:19.349Z,4.10
2019-06-07T08:03:50.693Z,3.63
2019-06-07T08:06:21.415Z,1.53
2019-06-07T08:08:55.811Z,2.70
2019-06-07T08:11:24.069Z,2.57
2019-06-07T08:13:57.242Z,4.97
2019-06-07T08:16:26.619Z,3.10
2019-06-07T08:19:03.215Z,1.73
2019-06-07T08:21:31.074Z,2.17
2019-06-07T08:24:04.849Z,2.10
2019-06-07T08:26:33.154Z,2.03
2019-06-07T08:29:03.967Z,4.30
2019-06-07T08:31:34.236Z,4.17
2019-06-07T08:34:05.207Z,5.57
2019-06-07T08:36:41.956Z,1.97
2019-06-07T08:39:10.183Z,3.07
2019-06-07T08:41:53.882Z,1.60
2019-06-07T08:44:23.374Z,2.07
2019-06-07T08:46:45.724Z,5.47
2019-06-07T08:49:16.300Z,2.30
2019-06-07T08:51:46.356Z,1.53
2019-06-07T08:54:22.827Z,1.98
2019-06-07T08:56:57.398Z,2.90
2019-06-07T08:59:24.711Z,2.00
2019-06-07T09:01:59.772Z,3.10
2019-06-07T09:04:30.411Z,1.60
2019-06-07T09:07:18.415Z,2.70
2019-06-07T09:09:35.415Z,2.70
2019-06-07T09:12:10.789Z,6.43
2019-06-07T09:14:58.925Z,1.27
2019-06-07T09:17:12.900Z,4.50
2019-06-07T09:19:43.273Z,3.40
2019-06-07T09:22:13.494Z,2.40
2019-06-07T09:24:43.924Z,2.33
2019-06-07T09:27:16.775Z,3.53
2019-06-07T09:29:48.441Z,3.00
2019-06-07T09:32:19.057Z,1.30
2019-06-07T09:34:49.632Z,1.60
2019-06-07T09:38:03.826Z,1.50
2019-06-07T09:40:00.507Z,1.50
2019-06-07T09:42:28.567Z,2.07
2019-06-07T09:45:01.151Z,1.47
2019-06-07T09:47:33.160Z,1.20
2019-06-07T09:50:08.374Z,1.40
2019-06-07T09:52:57.055Z,1.60
2019-06-07T09:55:23.108Z,1.77
2019-06-07T09:57:40.740Z,3.83
2019-06-07T10:00:39.741Z,1.50
2019-06-07T10:02:48.758Z,1.20
2019-06-07T10:05:19.236Z,3.33
2019-06-07T10:08:02.513Z,3.03
2019-06-07T10:12:54.808Z,1.53
2019-06-07T10:15:31.353Z,1.13
2019-06-07T10:18:02.804Z,2.13
2019-06-07T10:20:32.861Z,1.13
2019-06-07T10:23:05.581Z,2.00
2019-06-07T10:25:36.330Z,3.50
2019-06-07T10:28:08.337Z,2.07
2019-06-07T10:30:38.666Z,1.43
2019-06-07T10:33:10.499Z,1.50
2019-06-07T10:35:40.948Z,2.80
2019-06-07T10:38:11.251Z,1.80
2019-06-07T10:40:44.528Z,2.17
2019-06-07T10:43:15.890Z,1.80
2019-06-07T10:45:46.234Z,1.07
2019-06-07T10:48:34.914Z,1.50
2019-06-07T10:51:15.032Z,1.37
2019-06-07T10:53:51.466Z,2.90
2019-06-07T10:56:24.095Z,2.63
2019-06-07T10:58:54.489Z,2.33
2019-06-07T11:01:49.119Z,1.60
2019-06-07T11:04:21.159Z,1.87
2019-06-07T11:06:52.180Z,2.23
2019-06-07T11:10:05.714Z,1.23
2019-06-07T11:12:24.206Z,2.27
2019-06-07T11:14:54.927Z,2.97
2019-06-07T11:17:24.926Z,1.70
2019-06-07T11:19:58.709Z,1.60
2019-06-07T11:22:29.120Z,1.00
2019-06-07T11:25:00.473Z,2.80
2019-06-07T11:27:30.688Z,1.50
2019-06-07T11:30:01.133Z,2.30
2019-06-07T11:32:31.364Z,1.30
2019-06-07T11:35:02.629Z,1.23
2019-06-07T11:37:37.779Z,1.57
2019-06-07T11:40:28.046Z,1.00
2019-06-07T11:42:40.300Z,1.30
2019-06-07T11:47:50.723Z,3.13
2019-06-07T11:50:21.710Z,2.03
2019-06-07T11:52:52.654Z,8.23
2019-06-07T11:55:24.109Z,1.20
2019-06-07T11:57:55.360Z,2.03
2019-06-07T12:00:25.861Z,1.90
2019-06-07T12:02:56.262Z,3.37
2019-06-07T12:05:26.675Z,1.93
2019-06-07T12:07:57.309Z,1.27
2019-06-07T12:10:42.075Z,4.50
2019-06-07T12:13:10.443Z,1.27
2019-06-07T12:15:40.734Z,1.23
2019-06-07T12:18:11.298Z,1.00
2019-06-07T12:20:41.939Z,1.40
2019-06-07T12:23:12.284Z,3.43
2019-06-07T12:25:42.499Z,5.00
2019-06-07T12:28:12.711Z,1.03
2019-06-07T12:30:43.952Z,1.50
2019-06-07T12:33:15.857Z,2.30
2019-06-07T12:35:52.591Z,1.83
2019-06-07T12:38:27.388Z,1.70
2019-06-07T12:41:02.702Z,1.30
2019-06-07T12:43:32.887Z,1.27
2019-06-07T12:46:14.476Z,1.13
2019-06-07T12:48:42.582Z,2.33
2019-06-07T12:51:13.220Z,1.87
2019-06-07T12:53:43.662Z,2.27
2019-06-07T12:56:14.021Z,0.90
2019-06-07T12:58:46.960Z,3.30
2019-06-07T13:01:18.244Z,1.60
2019-06-07T13:03:48.762Z,2.80
2019-06-07T13:06:19.777Z,3.30
2019-06-07T13:08:50.816Z,2.37
2019-06-07T13:11:30.185Z,2.10
2019-06-07T13:14:00.895Z,2.47
2019-06-07T13:16:31.594Z,1.70
2019-06-07T13:19:02.074Z,1.70
2019-06-07T13:21:32.338Z,1.73
2019-06-07T13:24:05.176Z,1.27
2019-06-07T13:26:37.200Z,1.00
2019-06-07T13:29:08.344Z,0.93
2019-06-07T13:31:38.799Z,1.00
2019-06-07T13:34:09.830Z,1.70
2019-06-07T13:36:40.216Z,1.67
2019-06-07T13:39:10.329Z,1.83
2019-06-07T13:41:50.750Z,2.80
2019-06-07T13:44:22.890Z,4.20
2019-06-07T13:46:53.411Z,1.30
2019-06-07T13:49:31.421Z,1.10
2019-06-07T13:52:02.070Z,3.43
2019-06-07T13:54:33.449Z,1.40
2019-06-07T13:57:05.871Z,1.33
2019-06-07T13:59:37.997Z,1.30
2019-06-07T14:02:08.792Z,2.87
2019-06-07T14:04:39.101Z,2.17
2019-06-07T14:07:10.149Z,1.20
2019-06-07T14:09:53.985Z,2.10
2019-06-07T14:12:26.099Z,1.20
2019-06-07T14:14:57.056Z,2.97
2019-06-07T14:17:30.960Z,1.57
2019-06-07T14:20:01.175Z,2.80
2019-06-07T14:22:31.910Z,1.90
2019-06-07T14:25:02.683Z,5.43
2019-06-07T14:27:33.553Z,1.20
2019-06-07T14:30:06.245Z,1.20
2019-06-07T14:32:36.993Z,1.73
2019-06-07T14:35:08.575Z,2.83
2019-06-07T14:37:39.786Z,2.30
2019-06-07T14:40:11.741Z,1.10
2019-06-07T14:42:42.556Z,1.20
2019-06-07T14:45:14.791Z,2.00
2019-06-07T14:47:45.401Z,2.63
2019-06-07T14:50:16.348Z,2.10
2019-06-07T14:52:46.729Z,1.63
2019-06-07T14:55:17.412Z,1.43
2019-06-07T14:57:48.463Z,1.40
2019-06-07T15:00:19.143Z,2.30
2019-06-07T15:02:49.348Z,1.50
2019-06-07T15:05:24.519Z,3.00
2019-06-07T15:07:55.199Z,2.23
2019-06-07T15:10:26.602Z,1.90
2019-06-07T15:13:04.267Z,1.83
2019-06-07T15:15:46.814Z,1.80
2019-06-07T15:18:17.183Z,1.60
2019-06-07T15:20:47.429Z,1.43
2019-06-07T15:23:17.783Z,1.47
2019-06-07T15:26:22.836Z,2.07
2019-06-07T15:35:30.192Z,1.67
2019-06-07T15:38:04.855Z,1.97
2019-06-07T15:40:39.526Z,1.87
2019-06-07T15:43:10.888Z,1.60
2019-06-07T15:45:41.013Z,1.20
2019-06-07T15:48:20.281Z,1.40
2019-06-07T15:50:49.595Z,1.40
2019-06-07T15:53:23.083Z,1.60
2019-06-07T15:55:57.040Z,1.60
2019-06-07T16:01:19.053Z,1.90
2019-06-07T16:04:00.029Z,1.43
2019-06-07T16:06:38.374Z,2.07
2019-06-07T16:09:30.419Z,2.30
2019-06-07T16:11:51.585Z,1.70
2019-06-07T16:14:26.112Z,2.70
2019-06-07T16:16:57.194Z,5.00
2019-06-07T16:19:30.617Z,2.50
2019-06-07T16:22:01.203Z,2.10
2019-06-07T16:24:35.697Z,2.77
2019-06-07T16:27:06.226Z,2.13
2019-06-07T16:29:36.961Z,1.30
2019-06-07T16:32:07.228Z,2.90
2019-06-07T16:34:39.875Z,1.10
2019-06-07T16:37:11.000Z,1.30
2019-06-07T16:39:42.331Z,2.20
2019-06-07T16:42:12.980Z,2.10
2019-06-07T16:44:44.778Z,1.80
2019-06-07T16:47:15.913Z,1.63
2019-06-07T16:49:55.706Z,1.40
2019-06-07T16:52:27.790Z,4.23
2019-06-07T16:54:58.443Z,1.93
2019-06-07T16:57:30.595Z,1.40
2019-06-07T17:00:01.091Z,3.23
2019-06-07T17:02:31.052Z,2.07
2019-06-07T17:05:03.860Z,2.47
2019-06-07T17:07:35.081Z,1.50
2019-06-07T17:10:09.235Z,2.20
2019-06-07T17:12:58.674Z,1.50
2019-06-07T17:15:28.927Z,2.27
2019-06-07T17:18:05.996Z,1.87
2019-06-07T17:20:36.507Z,2.93
2019-06-07T17:23:07.159Z,2.07
2019-06-07T17:25:43.501Z,2.30
2019-06-07T17:28:15.262Z,3.43
2019-06-07T17:30:48.076Z,1.90
2019-06-07T17:33:20.507Z,2.17
2019-06-07T17:35:53.817Z,8.90
2019-06-07T17:38:26.075Z,3.23
2019-06-07T17:40:57.173Z,1.77
2019-06-07T17:43:48.442Z,2.10
2019-06-07T17:46:01.619Z,2.33
2019-06-07T17:48:46.038Z,1.63
2019-06-07T17:51:17.337Z,1.60
2019-06-07T17:53:52.615Z,1.60
2019-06-07T17:56:29.299Z,1.47
2019-06-07T17:59:06.636Z,1.50
2019-06-07T18:01:47.679Z,1.70
2019-06-07T18:04:14.686Z,1.77
2019-06-07T18:06:51.471Z,3.13
2019-06-07T18:09:35.005Z,3.03
2019-06-07T18:12:06.394Z,2.13
2019-06-07T18:14:43.895Z,2.33
2019-06-07T18:17:14.598Z,3.50
2019-06-07T18:19:48.866Z,2.00
2019-06-07T18:22:30.150Z,1.57
2019-06-07T18:25:12.887Z,1.70
2019-06-07T18:27:50.600Z,2.30
2019-06-07T18:30:46.549Z,1.90
2019-06-07T18:33:13.841Z,3.20
2019-06-07T18:35:46.972Z,2.80
2019-06-07T18:38:19.964Z,2.00
2019-06-07T18:41:01.153Z,2.20
2019-06-07T18:43:35.036Z,2.00
2019-06-07T18:46:09.050Z,2.50
2019-06-07T18:48:39.701Z,3.30
2019-06-07T18:51:12.522Z,3.43
2019-06-07T18:53:52.107Z,2.30
2019-06-07T18:56:20.457Z,2.80
2019-06-07T18:58:53.683Z,1.90
2019-06-07T19:01:27.069Z,2.50
2019-06-07T19:03:59.699Z,2.10
2019-06-07T19:06:29.722Z,2.63
2019-06-07T19:09:06.323Z,2.60
2019-06-07T19:11:33.275Z,2.90
2019-06-07T19:14:05.754Z,2.30
2019-06-07T19:16:35.840Z,1.40
2019-06-07T19:19:06.101Z,2.17
2019-06-07T19:21:36.813Z,2.00
2019-06-07T19:24:06.920Z,2.40
2019-06-07T19:26:38.691Z,2.67
2019-06-07T19:29:23.936Z,1.70
2019-06-07T19:31:46.298Z,2.47
2019-06-07T19:37:04.524Z,3.50
2019-06-07T19:39:39.066Z,2.83
2019-06-07T19:42:10.805Z,3.57
2019-06-07T19:44:53.102Z,1.93
2019-06-07T19:47:16.930Z,2.20
2019-06-07T19:50:00.918Z,2.13
2019-06-07T19:52:31.590Z,2.70
2019-06-07T19:55:06.200Z,2.90
2019-06-07T19:57:34.926Z,1.67
2019-06-07T20:00:13.960Z,1.87
2019-06-07T20:02:47.679Z,3.07
2019-06-07T20:05:18.839Z,3.47
2019-06-07T20:07:48.719Z,2.60
2019-06-07T20:10:18.849Z,3.83
2019-06-07T20:12:48.853Z,2.90
2019-06-07T20:15:28.343Z,2.63
2019-06-07T20:17:55.212Z,2.50
2019-06-07T20:20:30.002Z,2.67
2019-06-07T20:23:19.180Z,2.30
2019-06-07T20:25:50.672Z,2.73
2019-06-07T20:28:22.233Z,4.70
2019-06-07T20:30:54.713Z,2.10
2019-06-07T20:33:29.989Z,2.57
2019-06-07T20:36:11.368Z,2.57
2019-06-07T20:38:38.397Z,3.70
2019-06-07T20:41:11.224Z,3.13
2019-06-07T20:43:41.351Z,4.37
2019-06-07T20:46:11.397Z,5.17
2019-06-07T20:48:41.448Z,6.10
2019-06-07T20:51:15.310Z,4.33
2019-06-07T20:53:46.724Z,3.60
2019-06-07T20:56:19.738Z,4.57
2019-06-07T20:58:52.112Z,3.70
2019-06-07T21:01:22.667Z,5.20
2019-06-07T21:03:53.444Z,9.00
2019-06-07T21:06:31.502Z,6.60
2019-06-07T21:09:03.380Z,7.90
2019-06-07T21:11:33.785Z,4.63
2019-06-07T21:14:04.129Z,4.60
2019-06-07T21:16:36.513Z,6.07
2019-06-07T21:19:08.250Z,6.40
2019-06-07T21:21:38.386Z,6.37
2019-06-07T21:24:10.918Z,4.93
2019-06-07T21:26:41.269Z,4.63
2019-06-07T21:29:13.903Z,4.97
2019-06-07T21:31:44.456Z,5.70
2019-06-07T21:34:14.950Z,8.27
2019-06-07T21:36:45.912Z,7.40
2019-06-07T21:39:17.238Z,8.07
2019-06-07T21:41:48.532Z,8.90
2019-06-07T21:44:20.268Z,8.57
2019-06-07T21:46:51.569Z,9.37
2019-06-07T21:49:23.375Z,8.77
2019-06-07T21:51:55.048Z,7.63
2019-06-07T21:54:26.640Z,7.23
2019-06-07T21:57:00.412Z,8.60
2019-06-07T21:59:31.988Z,9.27
2019-06-07T22:02:03.633Z,7.30
2019-06-07T22:04:35.077Z,6.20
2019-06-07T22:07:07.905Z,5.73
2019-06-07T22:09:39.457Z,3.93
2019-06-07T22:12:12.030Z,4.67
2019-06-07T22:14:43.680Z,5.20
2019-06-07T22:17:15.150Z,5.10
2019-06-07T22:19:46.834Z,6.07
2019-06-07T22:22:18.173Z,5.77
2019-06-07T22:24:49.714Z,6.10
2019-06-07T22:27:21.203Z,6.17
2019-06-07T22:29:53.213Z,8.30
2019-06-07T22:32:24.925Z,6.23
2019-06-07T22:34:56.544Z,6.77
2019-06-07T22:37:29.816Z,6.47
2019-06-07T22:40:01.293Z,7.40
2019-06-07T22:42:32.811Z,7.27
2019-06-07T22:45:04.840Z,8.10
2019-06-07T22:47:36.829Z,8.50
2019-06-07T22:50:10.412Z,6.70
2019-06-07T22:52:42.354Z,7.17
2019-06-07T22:55:13.982Z,6.97
2019-06-07T22:57:56.450Z,7.30
2019-06-07T23:00:29.347Z,6.83
2019-06-07T23:03:00.995Z,6.90
2019-06-07T23:05:32.432Z,7.10
2019-06-07T23:08:03.990Z,6.30
2019-06-07T23:10:35.132Z,5.13
2019-06-07T23:13:06.475Z,5.43
2019-06-07T23:15:38.124Z,5.17
2019-06-07T23:18:09.848Z,4.83
2019-06-07T23:20:41.526Z,5.73
2019-06-07T23:23:14.949Z,5.50
2019-06-07T23:25:46.092Z,4.97
2019-06-07T23:28:18.667Z,5.33
2019-06-07T23:30:50.132Z,4.70
2019-06-07T23:33:21.573Z,5.07
2019-06-07T23:35:52.926Z,4.60
2019-06-07T23:38:24.102Z,4.50
2019-06-07T23:40:55.193Z,4.60
2019-06-07T23:43:26.616Z,4.20
2019-06-07T23:45:57.623Z,4.63
2019-06-07T23:48:28.927Z,4.20
2019-06-07T23:51:00.305Z,4.23
2019-06-07T23:53:31.289Z,4.10
2019-06-07T23:56:03.414Z,4.20
2019-06-07T23:58:34.687Z,4.20
